Time;durP1;ratioP1;P1;durP2;ratioP2;P2;SDS_P1;SDS_P2;PMS_P1;PMS_P2;Temp;Humidity;BMP_temperature;BMP_pressure;BME280_temperature;BME280_humidity;BME280_pressure;Samples;Min_cycle;Max_cycle;Signal;HPM_P1;HPM_P2
2022/11/22 09:20:24;;;;;;;55.05;14.60;;;;;;;8.32;72.45;98208.25;1078195;54;20053;-81
2022/11/22 09:21:34;;;;;;;46.50;11.98;;;;;;;8.34;72.27;98208.94;1086212;54;20195;-80
2022/11/22 09:22:41;;;;;;;37.40;11.10;;;;;;;8.38;72.74;98212.91;1086764;39;20498;-82
2022/11/22 09:23:44;;;;;;;29.90;8.82;;;;;;;8.44;72.55;98209.53;1085988;54;20042;-80
2022/11/22 09:24:49;;;;;;;27.38;7.88;;;;;;;8.51;72.58;98212.34;1086061;39;20878;-81
2022/11/22 09:26:13;;;;;;;22.83;6.80;;;;;;;8.56;71.96;98210.81;1085722;54;20038;-82
2022/11/22 09:27:19;;;;;;;49.20;15.90;;;;;;;8.48;72.53;98213.56;1085824;54;20046;-81
2022/11/22 09:28:25;;;;;;;38.95;10.13;;;;;;;8.50;72.48;98216.84;1085133;54;20687;-82
2022/11/22 09:29:30;;;;;;;29.88;8.73;;;;;;;8.58;72.44;98218.63;1085528;54;20057;-80
2022/11/22 09:30:33;;;;;;;25.08;6.78;;;;;;;8.67;71.91;98211.44;1084748;54;20035;-80
2022/11/22 09:31:38;;;;;;;20.88;6.25;;;;;;;8.70;71.79;98222.56;1084047;54;20038;-80
2022/11/22 09:32:42;;;;;;;17.52;5.70;;;;;;;8.54;72.09;98226.16;1084985;54;20065;-80
2022/11/22 09:33:50;;;;;;;17.67;5.32;;;;;;;8.69;71.71;98223.56;1085670;54;20640;-80
2022/11/22 09:34:55;;;;;;;14.73;4.18;;;;;;;8.72;71.69;98219.69;1088061;39;20590;-79
2022/11/22 09:36:00;;;;;;;14.25;3.30;;;;;;;8.78;71.43;98226.16;1085468;54;20046;-81
2022/11/22 09:38:57;;;;;;;16.90;4.78;;;;;;;8.74;71.18;98226.50;1084288;54;20083;-80
2022/11/22 09:40:05;;;;;;;12.27;4.20;;;;;;;8.79;71.00;98225.16;1084218;54;20057;-80
2022/11/22 09:41:25;;;;;;;15.68;4.85;;;;;;;8.80;70.58;98218.81;1085172;54;20042;-79
2022/11/22 09:43:01;;;;;;;13.18;3.67;;;;;;;8.75;70.66;98224.69;1085263;54;20047;-80
2022/11/22 09:44:15;;;;;;;12.45;3.22;;;;;;;8.84;70.58;98223.63;1084350;54;20652;-80
2022/11/22 09:45:59;;;;;;;10.43;3.47;;;;;;;8.82;69.70;98225.63;1084531;54;20034;-80
2022/11/22 09:47:14;;;;;;;8.77;3.42;;;;;;;8.81;70.23;98226.63;1083967;54;20038;-81
2022/11/22 09:48:39;;;;;;;8.77;3.45;;;;;;;8.78;69.68;98221.69;1085341;47;20038;-79
2022/11/22 09:49:55;;;;;;;10.30;2.55;;;;;;;8.82;69.78;98222.97;1084694;54;20065;-80
2022/11/22 09:51:06;;;;;;;9.63;3.78;;;;;;;8.83;70.11;98221.13;1085442;54;20057;-80
2022/11/22 09:52:18;;;;;;;16.13;3.88;;;;;;;8.84;69.77;98228.94;1085985;39;20576;-80
2022/11/22 09:53:30;;;;;;;20.17;7.07;;;;;;;8.82;70.21;98230.13;1085123;54;20061;-83
2022/11/22 09:54:43;;;;;;;38.70;15.35;;;;;;;8.80;69.97;98230.28;1085595;54;20042;-79
2022/11/22 09:55:47;;;;;;;27.48;10.43;;;;;;;8.83;70.32;98231.81;1084880;54;20054;-79
2022/11/22 09:56:56;;;;;;;22.55;8.25;;;;;;;8.85;69.90;98235.09;1084906;54;20045;-80
2022/11/22 09:58:08;;;;;;;17.92;7.57;;;;;;;8.90;69.93;98238.88;1085281;54;20026;-79
2022/11/22 09:59:31;;;;;;;14.70;5.95;;;;;;;8.94;69.82;98238.53;1085466;54;20045;-80
2022/11/22 10:02:00;;;;;;;15.88;5.53;;;;;;;8.87;70.20;98241.06;1086396;54;20026;-82
2022/11/22 10:03:16;;;;;;;9.93;3.78;;;;;;;8.94;69.79;98238.53;1087280;47;20066;-80
2022/11/22 10:04:26;;;;;;;10.85;3.80;;;;;;;8.96;69.63;98247.19;1086154;54;20030;-80
2022/11/22 10:05:38;;;;;;;8.48;2.90;;;;;;;9.00;69.77;98243.13;1086313;54;20034;-79
2022/11/22 10:08:33;;;;;;;8.52;2.72;;;;;;;9.07;69.43;98253.91;1085568;54;20046;-79
2022/11/22 10:09:44;;;;;;;11.15;2.95;;;;;;;9.05;69.52;98251.44;1085331;47;20585;-80
2022/11/22 10:10:53;;;;;;;7.95;2.58;;;;;;;9.07;69.46;98259.25;1086745;54;20080;-79
2022/11/22 10:12:04;;;;;;;8.10;2.22;;;;;;;9.11;69.50;98256.06;1085884;54;20042;-80
2022/11/22 10:13:17;;;;;;;8.50;3.13;;;;;;;9.02;69.19;98257.13;1086777;46;20062;-80
2022/11/22 10:14:35;;;;;;;7.57;2.38;;;;;;;9.07;68.85;98249.41;1086820;54;20042;-80
2022/11/22 10:15:50;;;;;;;8.68;2.55;;;;;;;9.12;69.04;98256.88;1088069;46;20042;-81
2022/11/22 10:16:59;;;;;;;6.80;2.20;;;;;;;9.16;68.69;98253.66;1087696;54;20042;-83
2022/11/22 10:18:07;;;;;;;14.73;6.50;;;;;;;9.02;69.04;98259.78;1092148;46;20018;-81
2022/11/22 10:19:17;;;;;;;8.57;3.78;;;;;;;9.12;68.79;98263.03;1086773;46;20110;-81
2022/11/22 10:20:19;;;;;;;11.52;4.55;;;;;;;9.09;69.06;98262.56;1087088;54;20094;-80
2022/11/22 10:22:10;;;;;;;13.50;5.13;;;;;;;8.74;68.02;98263.81;1086881;54;20035;-79
2022/11/22 10:23:30;;;;;;;12.38;4.47;;;;;;;8.77;68.57;98267.97;1086685;39;20426;-79
2022/11/22 10:24:35;;;;;;;9.98;3.42;;;;;;;8.94;68.76;98266.00;1087536;54;20074;-80
2022/11/22 10:25:44;;;;;;;6.88;2.75;;;;;;;9.05;67.95;98270.91;1086717;54;20038;-80
2022/11/22 10:26:49;;;;;;;8.45;2.75;;;;;;;9.13;67.68;98270.03;1087311;54;20035;-82
2022/11/22 10:28:04;;;;;;;5.75;2.40;;;;;;;9.17;67.62;98275.84;1087424;54;20033;-81
2022/11/22 10:29:27;;;;;;;8.15;3.60;;;;;;;9.13;66.78;98269.19;1089034;39;20523;-80
2022/11/22 10:31:23;;;;;;;;;;;;;;;;;;;;;
2022/11/22 10:32:38;;;;;;;7.30;2.40;;;;;;;9.25;67.19;98269.63;1085630;54;20573;-79
2022/11/22 10:33:50;;;;;;;11.18;3.50;;;;;;;9.02;66.90;98273.13;1085680;54;20190;-79
2022/11/22 10:35:11;;;;;;;7.72;2.58;;;;;;;9.07;66.66;98268.06;1086721;46;20038;-79
2022/11/22 10:36:26;;;;;;;8.55;3.47;;;;;;;9.01;66.56;98279.44;1085323;39;20442;-79
2022/11/22 10:37:39;;;;;;;9.32;3.20;;;;;;;9.13;66.51;98269.19;1085661;54;20042;-79
2022/11/22 10:39:04;;;;;;;8.57;2.30;;;;;;;9.21;65.63;98264.63;1086639;54;20098;-81
2022/11/22 10:40:19;;;;;;;7.47;2.67;;;;;;;9.28;65.86;98266.56;1086414;54;20121;-81
2022/11/22 10:41:41;;;;;;;8.88;3.78;;;;;;;9.32;65.50;98275.88;1087606;46;20094;-82
2022/11/22 10:43:18;;;;;;;7.40;2.30;;;;;;;9.15;64.19;98272.50;1087748;46;20065;-78
2022/11/22 10:44:35;;;;;;;8.35;3.03;;;;;;;9.19;65.75;98276.50;1085629;54;20069;-79
2022/11/22 10:45:45;;;;;;;6.85;2.30;;;;;;;9.29;65.07;98278.91;1085803;54;20038;-80
2022/11/22 10:47:02;;;;;;;5.45;2.30;;;;;;;9.31;64.95;98284.88;1085726;54;20042;-79
2022/11/22 10:48:21;;;;;;;11.57;3.45;;;;;;;9.15;65.01;98284.03;1086864;54;20037;-80
2022/11/22 10:49:39;;;;;;;6.63;2.47;;;;;;;9.30;64.79;98276.06;1086518;54;20735;-79
2022/11/22 10:50:57;;;;;;;5.43;2.30;;;;;;;9.33;64.57;98281.03;1087588;46;20038;-80
2022/11/22 10:52:08;;;;;;;6.10;2.08;;;;;;;9.40;64.83;98273.13;1085856;31;20510;-78
2022/11/22 10:53:24;;;;;;;6.47;2.15;;;;;;;9.28;64.54;98272.75;1085287;47;20042;-79
2022/11/22 10:54:37;;;;;;;5.70;2.00;;;;;;;9.20;64.41;98270.16;1085522;54;20088;-79
2022/11/22 10:55:52;;;;;;;7.93;2.35;;;;;;;9.27;64.71;98267.56;1085885;46;20069;-80
2022/11/22 10:57:05;;;;;;;9.15;2.05;;;;;;;9.32;64.94;98263.38;1085711;39;20572;-79
2022/11/22 10:58:13;;;;;;;7.72;2.03;;;;;;;9.35;65.03;98271.00;1087703;39;20442;-81
2022/11/22 10:59:34;;;;;;;6.20;2.67;;;;;;;9.24;64.83;98276.78;1087870;39;20398;-79
2022/11/22 11:00:43;;;;;;;10.63;2.97;;;;;;;9.26;64.88;98274.75;1086591;46;20130;-81
2022/11/22 11:01:57;;;;;;;5.65;2.25;;;;;;;9.33;64.99;98280.22;1086828;54;20054;-79
2022/11/22 11:03:13;;;;;;;6.93;2.75;;;;;;;9.31;64.99;98271.56;1086586;54;20564;-79
2022/11/22 11:04:19;;;;;;;5.85;2.00;;;;;;;9.32;65.10;98270.53;1086485;46;20048;-80
2022/11/22 11:05:29;;;;;;;8.20;2.63;;;;;;;9.08;65.29;98272.41;1087456;46;20038;-79
2022/11/22 11:06:37;;;;;;;6.15;2.10;;;;;;;9.16;65.46;98263.50;1086222;54;20087;-77
2022/11/22 11:07:44;;;;;;;9.15;2.83;;;;;;;9.22;65.80;98270.78;1086012;54;20050;-81
2022/11/22 11:08:52;;;;;;;5.95;2.10;;;;;;;9.24;65.70;98275.94;1087229;54;20038;-79
2022/11/22 11:10:04;;;;;;;7.13;2.63;;;;;;;9.05;66.06;98268.25;1086977;46;20065;-79
2022/11/22 11:11:05;;;;;;;8.63;2.80;;;;;;;9.20;66.13;98265.63;1088642;46;20030;-79
2022/11/22 11:12:17;;;;;;;11.07;2.90;;;;;;;9.16;66.18;98275.00;1086716;46;20034;-78
2022/11/22 11:13:26;;;;;;;8.85;2.47;;;;;;;9.19;66.38;98268.50;1085704;54;20054;-77
2022/11/22 11:14:34;;;;;;;8.48;2.80;;;;;;;9.04;66.77;98266.59;1086078;39;20445;-78
2022/11/22 11:15:44;;;;;;;12.32;3.30;;;;;;;9.23;66.67;98263.63;1085273;54;20050;-78
2022/11/22 11:16:48;;;;;;;6.80;2.58;;;;;;;9.09;67.03;98263.38;1085231;54;20039;-79
2022/11/22 11:17:59;;;;;;;9.45;3.00;;;;;;;9.18;66.84;98267.66;1085808;46;20061;-80
2022/11/22 11:19:25;;;;;;;9.45;3.35;;;;;;;9.18;66.89;98259.66;1085986;54;20061;-78
2022/11/22 11:20:37;;;;;;;6.18;2.40;;;;;;;9.31;66.52;98261.69;1084483;54;20038;-78
2022/11/22 11:21:47;;;;;;;7.50;2.70;;;;;;;9.36;66.51;98254.00;1084627;54;20046;-77
2022/11/22 11:22:50;;;;;;;6.28;2.55;;;;;;;9.46;66.61;98252.91;1085507;54;20042;-78
2022/11/22 11:23:54;;;;;;;8.70;2.60;;;;;;;9.52;66.50;98255.69;1085902;54;20133;-79
2022/11/22 11:25:39;;;;;;;8.45;2.92;;;;;;;9.52;66.48;98257.53;1086074;54;20102;-80
2022/11/22 11:26:45;;;;;;;5.72;2.15;;;;;;;9.55;66.37;98251.81;1088271;54;20030;-79
2022/11/22 11:27:46;;;;;;;7.88;2.33;;;;;;;9.58;66.50;98246.13;1092215;46;20057;-80
2022/11/22 11:28:50;;;;;;;6.10;2.67;;;;;;;9.51;66.62;98251.38;1088269;54;20030;-80
2022/11/22 11:30:02;;;;;;;6.80;2.50;;;;;;;9.61;66.69;98242.28;1087458;54;20015;-80
2022/11/22 11:31:12;;;;;;;8.32;2.75;;;;;;;9.63;66.72;98233.06;1087382;39;20630;-79
2022/11/22 11:32:18;;;;;;;6.07;2.47;;;;;;;9.59;66.71;98237.09;1086571;39;20591;-80
2022/11/22 11:33:27;;;;;;;9.65;2.80;;;;;;;9.69;66.43;98231.50;1084851;39;20470;-79
2022/11/22 11:34:29;;;;;;;9.55;3.25;;;;;;;9.68;66.32;98233.34;1085331;46;20050;-79
2022/11/22 11:35:39;;;;;;;7.68;2.90;;;;;;;9.69;66.40;98231.50;1086190;54;20030;-78
2022/11/22 11:36:52;;;;;;;9.18;2.80;;;;;;;9.56;66.48;98232.16;1085683;54;20034;-79
2022/11/22 11:38:33;;;;;;;7.72;2.70;;;;;;;9.54;66.19;98233.34;1084734;54;20148;-79
2022/11/22 11:39:56;;;;;;;11.73;3.85;;;;;;;9.50;66.77;98233.69;1084708;54;20070;-78
2022/11/22 11:41:29;;;;;;;8.43;3.10;;;;;;;9.37;66.93;98222.81;1083788;54;20137;-78
2022/11/22 11:42:35;;;;;;;6.95;2.20;;;;;;;9.56;66.81;98231.31;1083058;54;20038;-79
2022/11/22 11:43:41;;;;;;;6.60;2.20;;;;;;;9.60;66.65;98225.41;1085546;54;20038;-79
2022/11/22 11:44:45;;;;;;;10.00;2.80;;;;;;;9.60;66.49;98228.09;1084964;54;20073;-80
2022/11/22 11:45:50;;;;;;;9.00;2.50;;;;;;;9.60;66.75;98222.75;1084110;54;20074;-78
2022/11/22 11:46:55;;;;;;;8.88;3.10;;;;;;;9.59;66.44;98215.75;1083646;46;20050;-77
2022/11/22 11:47:59;;;;;;;6.28;2.58;;;;;;;9.61;66.39;98218.25;1083415;54;20044;-78
2022/11/22 11:49:12;;;;;;;6.38;2.45;;;;;;;9.65;66.34;98220.38;1084159;47;20050;-78
2022/11/22 11:50:19;;;;;;;7.30;2.30;;;;;;;9.75;66.35;98220.09;1083592;54;20054;-79
2022/11/22 11:51:33;;;;;;;7.38;2.17;;;;;;;9.77;66.30;98212.72;1083246;54;20038;-78
2022/11/22 11:52:35;;;;;;;5.70;2.17;;;;;;;9.76;66.30;98211.06;1083535;54;20042;-78
2022/11/22 11:53:51;;;;;;;10.40;3.15;;;;;;;9.75;66.09;98208.59;1084815;54;20045;-80
2022/11/22 11:55:05;;;;;;;10.05;2.72;;;;;;;9.63;65.24;98210.91;1086558;54;20050;-81
2022/11/22 11:56:34;;;;;;;11.35;2.85;;;;;;;9.59;65.66;98207.75;1086402;54;20041;-80
2022/11/22 11:57:39;;;;;;;9.63;2.72;;;;;;;9.41;65.68;98210.78;1087501;54;20037;-78
2022/11/22 11:58:40;;;;;;;7.65;2.10;;;;;;;9.55;66.14;98206.47;1088351;39;20480;-79
2022/11/22 11:59:48;;;;;;;8.35;2.78;;;;;;;9.65;65.87;98200.84;1088690;46;20026;-78
2022/11/22 12:00:50;;;;;;;7.03;2.50;;;;;;;9.68;65.53;98200.50;1087004;54;20066;-78
2022/11/22 12:02:04;;;;;;;6.90;2.28;;;;;;;9.78;65.29;98195.72;1087530;54;20037;-78
2022/11/22 12:03:10;;;;;;;7.32;2.22;;;;;;;9.83;64.97;98200.50;1087222;54;20109;-78
2022/11/22 12:04:21;;;;;;;5.60;2.03;;;;;;;9.74;64.85;98196.28;1089375;46;20073;-79
2022/11/22 12:05:30;;;;;;;6.30;1.88;;;;;;;9.82;64.70;98188.16;1087324;54;20038;-78
2022/11/22 12:06:35;;;;;;;9.00;2.00;;;;;;;9.84;64.55;98199.50;1087329;54;20090;-78
2022/11/22 12:07:43;;;;;;;5.70;1.98;;;;;;;9.81;64.20;98192.69;1088542;46;20104;-78
2022/11/22 12:08:48;;;;;;;6.60;2.03;;;;;;;9.87;64.14;98187.59;1087168;54;20069;-78
2022/11/22 12:09:54;;;;;;;7.20;2.30;;;;;;;9.83;64.21;98195.16;1087354;54;20038;-79
2022/11/22 12:11:00;;;;;;;7.15;2.40;;;;;;;9.84;64.09;98186.97;1087339;54;20820;-78
2022/11/22 12:12:20;;;;;;;6.70;1.90;;;;;;;9.86;63.36;98188.63;1087455;54;20027;-78
2022/11/22 12:13:31;;;;;;;10.40;3.33;;;;;;;9.63;64.10;98186.91;1087231;54;20046;-78
2022/11/22 12:14:37;;;;;;;8.23;2.10;;;;;;;9.54;64.43;98185.34;1087364;54;20082;-78
2022/11/22 12:15:54;;;;;;;6.82;2.25;;;;;;;9.77;64.20;98187.91;1087443;54;20061;-78
2022/11/22 12:17:07;;;;;;;5.30;1.90;;;;;;;9.91;63.58;98186.22;1087444;54;20076;-78
2022/11/22 12:18:28;;;;;;;8.95;2.95;;;;;;;9.69;63.61;98194.16;1087356;54;20604;-78
2022/11/22 12:19:46;;;;;;;8.77;2.50;;;;;;;9.52;63.21;98191.69;1087371;54;20039;-78
2022/11/22 12:20:57;;;;;;;10.80;3.15;;;;;;;9.58;63.19;98191.94;1087150;54;20061;-78
2022/11/22 12:22:05;;;;;;;9.57;2.58;;;;;;;9.64;62.59;98185.84;1087304;54;20057;-79
2022/11/22 12:23:22;;;;;;;5.82;2.05;;;;;;;9.63;62.59;98190.38;1087407;54;20027;-77
2022/11/22 12:24:31;;;;;;;5.20;1.80;;;;;;;9.81;62.85;98186.50;1087402;54;20046;-77
2022/11/22 12:25:36;;;;;;;5.28;1.85;;;;;;;9.95;62.61;98176.81;1087500;54;20034;-78
2022/11/22 12:26:40;;;;;;;6.75;2.70;;;;;;;9.95;62.28;98176.81;1087397;54;20014;-77
2022/11/22 12:27:47;;;;;;;9.95;3.25;;;;;;;9.99;62.24;98175.44;1087395;54;20068;-77
2022/11/22 12:28:51;;;;;;;6.40;2.30;;;;;;;9.93;62.59;98176.19;1087762;46;20046;-78
2022/11/22 12:29:56;;;;;;;7.63;2.90;;;;;;;9.72;62.53;98185.78;1087490;47;20105;-78
2022/11/22 12:31:06;;;;;;;8.95;2.90;;;;;;;9.67;62.85;98185.50;1088373;46;20019;-78
2022/11/22 12:32:14;;;;;;;;;;;;;;;9.74;62.40;98181.06;1087631;54;20037;-77
2022/11/22 12:33:22;;;;;;;8.95;2.22;;;;;;;9.91;62.04;98173.69;1087331;54;19938;-77
2022/11/22 12:34:31;;;;;;;4.85;1.80;;;;;;;9.90;61.95;98171.22;1087444;47;20039;-78
2022/11/22 12:35:41;;;;;;;6.10;2.20;;;;;;;9.92;61.94;98171.88;1087401;54;20031;-78
2022/11/22 12:36:49;;;;;;;7.80;2.65;;;;;;;9.87;61.88;98175.06;1087776;46;20648;-78
2022/11/22 12:37:56;;;;;;;8.25;2.47;;;;;;;9.81;61.34;98171.34;1087518;54;20042;-77
2022/11/22 12:39:03;;;;;;;6.43;2.10;;;;;;;9.87;61.15;98171.59;1087511;54;20018;-77
2022/11/22 12:40:19;;;;;;;7.10;2.08;;;;;;;9.73;61.39;98176.75;1092183;39;20332;-78
2022/11/22 12:41:29;;;;;;;10.25;2.20;;;;;;;9.82;61.47;98169.47;1089923;46;20038;-78
2022/11/22 12:42:42;;;;;;;9.82;2.40;;;;;;;9.93;61.26;98169.00;1087581;54;20034;-77
2022/11/22 12:43:53;;;;;;;5.00;1.65;;;;;;;10.03;61.00;98163.38;1088303;46;20050;-77
2022/11/22 12:45:03;;;;;;;5.22;1.80;;;;;;;9.96;60.40;98165.13;1087496;54;20026;-78
2022/11/22 12:46:13;;;;;;;12.23;2.38;;;;;;;9.73;60.63;98163.41;1086640;54;20046;-79
2022/11/22 12:47:22;;;;;;;7.05;1.77;;;;;;;9.61;61.13;98165.72;1086315;47;20069;-79
2022/11/22 12:48:32;;;;;;;6.63;1.90;;;;;;;9.81;60.75;98163.34;1085765;54;20072;-80
2022/11/22 12:49:42;;;;;;;7.07;1.83;;;;;;;9.79;60.51;98162.69;1086009;54;20041;-79
2022/11/22 12:50:51;;;;;;;5.82;1.95;;;;;;;9.86;60.55;98153.91;1085699;54;20122;-80
2022/11/22 12:51:59;;;;;;;8.48;2.13;;;;;;;9.96;60.12;98157.13;1085804;54;20042;-79
2022/11/22 12:53:10;;;;;;;7.15;2.08;;;;;;;9.77;59.49;98163.88;1088710;31;20573;-80
2022/11/22 12:54:16;;;;;;;;;;;;;;;9.68;58.04;98157.81;1087020;47;20046;-79
2022/11/22 12:55:24;;;;;;;6.18;1.60;;;;;;;9.78;59.09;98158.34;1085653;54;19994;-79
2022/11/22 12:56:32;;;;;;;5.82;1.70;;;;;;;9.88;58.82;98157.25;1086423;54;20667;-79
2022/11/22 12:57:39;;;;;;;4.18;1.63;;;;;;;9.97;58.81;98164.94;1086779;46;20142;-79
2022/11/22 12:58:56;;;;;;;7.97;3.00;;;;;;;9.94;58.13;98154.66;1085982;54;20035;-81
2022/11/22 13:00:06;;;;;;;5.53;1.35;;;;;;;9.95;57.65;98166.16;1086543;54;20046;-79
2022/11/22 13:01:17;;;;;;;9.82;2.20;;;;;;;9.73;57.52;98157.25;1087464;46;20167;-79
2022/11/22 13:02:30;;;;;;;7.10;1.67;;;;;;;9.83;57.76;98155.13;1085755;54;20082;-79
2022/11/22 13:03:40;;;;;;;5.18;1.80;;;;;;;9.83;57.93;98153.28;1089106;31;20494;-79
2022/11/22 13:04:52;;;;;;;7.72;1.73;;;;;;;9.95;57.51;98163.47;1085852;54;20042;-80
2022/11/22 13:05:59;;;;;;;4.25;1.38;;;;;;;9.95;57.73;98158.13;1085946;47;20050;-79
2022/11/22 13:07:09;;;;;;;5.78;1.90;;;;;;;9.81;57.69;98158.00;1085530;54;20150;-80
2022/11/22 13:08:20;;;;;;;13.02;6.72;;;;;;;9.73;58.28;98157.25;1085624;54;20077;-80
2022/11/22 13:09:30;;;;;;;11.70;5.95;;;;;;;9.80;58.14;98161.66;1086005;54;20045;-78
2022/11/22 13:10:37;;;;;;;16.02;8.90;;;;;;;9.91;57.98;98155.03;1085668;54;20048;-79
2022/11/22 13:11:48;;;;;;;9.80;4.63;;;;;;;9.80;58.48;98152.81;1085496;54;21017;-80
2022/11/22 13:12:53;;;;;;;7.20;3.08;;;;;;;9.79;58.64;98157.34;1085778;46;20035;-78
2022/11/22 13:14:06;;;;;;;7.13;2.65;;;;;;;9.90;58.58;98152.53;1086107;54;20053;-80
2022/11/22 13:15:15;;;;;;;6.50;2.53;;;;;;;9.99;58.45;98162.09;1085725;54;20106;-79
2022/11/22 13:16:19;;;;;;;6.22;2.85;;;;;;;10.08;58.36;98155.63;1086915;46;20046;-80
2022/11/22 13:17:25;;;;;;;6.70;2.20;;;;;;;10.13;58.14;98157.75;1086090;54;20102;-79
2022/11/22 13:18:31;;;;;;;6.93;2.08;;;;;;;10.13;58.09;98153.22;1087365;46;20102;-79
2022/11/22 13:19:43;;;;;;;6.05;2.13;;;;;;;9.98;58.29;98152.44;1086201;39;20433;-79
2022/11/22 13:28:38;;;;;;;8.52;1.70;;;;;;;9.56;58.32;98168.13;1087785;47;20125;-79
2022/11/22 13:29:46;;;;;;;6.80;1.60;;;;;;;9.72;58.28;98161.78;1087368;47;20061;-79
2022/11/22 13:31:08;;;;;;;9.57;1.80;;;;;;;9.79;57.70;98160.00;1086170;54;20065;-79
2022/11/22 13:32:22;;;;;;;5.85;1.98;;;;;;;9.55;57.81;98163.81;1085722;54;20042;-80
2022/11/22 13:33:25;;;;;;;7.72;1.92;;;;;;;9.78;57.90;98161.03;1086018;54;20038;-79
2022/11/22 13:34:30;;;;;;;6.28;2.03;;;;;;;9.71;58.22;98167.28;1085515;54;20039;-78
2022/11/22 13:35:34;;;;;;;5.82;1.98;;;;;;;9.60;58.30;98155.25;1085382;54;20073;-79
2022/11/22 13:36:40;;;;;;;6.25;2.00;;;;;;;9.60;58.03;98163.25;1085907;39;20529;-79
2022/11/22 13:37:47;;;;;;;6.90;1.58;;;;;;;9.61;58.04;98160.38;1085800;54;20057;-80
2022/11/22 13:38:51;;;;;;;6.47;2.15;;;;;;;9.69;57.94;98164.81;1086389;47;20686;-79
2022/11/22 13:40:12;;;;;;;4.85;2.10;;;;;;;9.75;57.67;98158.72;1086233;54;20588;-80
2022/11/22 13:41:26;;;;;;;6.00;1.67;;;;;;;9.74;57.82;98154.38;1085764;54;20046;-79
2022/11/22 13:42:30;;;;;;;7.88;1.80;;;;;;;9.71;58.11;98154.78;1086973;54;20309;-79
2022/11/22 13:43:49;;;;;;;6.95;2.05;;;;;;;9.62;57.82;98159.38;1086812;54;20038;-80
2022/11/22 13:45:09;;;;;;;6.10;1.52;;;;;;;9.65;57.38;98161.69;1087343;54;20058;-80
2022/11/22 13:46:40;;;;;;;6.03;1.67;;;;;;;9.50;57.82;98158.16;1087267;54;20094;-78
2022/11/22 13:47:45;;;;;;;6.30;1.70;;;;;;;9.68;57.87;98152.47;1089439;39;20754;-80
2022/11/22 13:49:15;;;;;;;5.90;1.42;;;;;;;9.62;57.37;98156.72;1087552;54;20061;-79
2022/11/22 13:50:51;;;;;;;6.32;1.77;;;;;;;9.72;57.84;98150.25;1087472;54;20077;-79
2022/11/22 13:52:00;;;;;;;5.85;2.00;;;;;;;9.77;57.79;98154.03;1087432;54;20065;-79
2022/11/22 13:53:23;;;;;;;5.18;1.63;;;;;;;9.84;57.19;98156.78;1086999;54;20018;-79
2022/11/22 13:54:58;;;;;;;5.03;1.73;;;;;;;9.66;57.44;98149.16;1087462;54;20050;-78
2022/11/22 13:56:33;;;;;;;7.20;1.67;;;;;;;9.73;57.13;98159.91;1087462;54;20046;-79
2022/11/22 13:57:39;;;;;;;7.90;1.83;;;;;;;9.66;58.11;98159.81;1087443;54;20062;-79
2022/11/22 13:58:50;;;;;;;5.07;1.83;;;;;;;9.80;57.50;98156.34;1087473;54;20052;-78
2022/11/22 14:00:24;;;;;;;6.20;1.85;;;;;;;9.79;57.41;98156.50;1088525;46;20018;-78
2022/11/22 14:02:02;;;;;;;14.38;2.10;;;;;;;9.88;57.39;98159.91;1087646;54;20042;-79
2022/11/22 14:03:26;;;;;;;5.20;1.30;;;;;;;9.92;57.47;98155.88;1087616;54;20062;-79
2022/11/22 14:04:42;;;;;;;5.20;1.20;;;;;;;9.74;57.78;98159.72;1088473;46;20703;-80
2022/11/22 14:05:47;;;;;;;8.98;2.53;;;;;;;9.76;57.76;98159.56;1087918;54;20058;-79
2022/11/22 14:06:53;;;;;;;5.57;1.85;;;;;;;9.82;57.69;98156.94;1087954;54;20057;-79
2022/11/22 14:07:58;;;;;;;4.88;1.35;;;;;;;9.79;57.67;98156.50;1087802;54;20050;-79
2022/11/22 14:09:38;;;;;;;4.88;1.70;;;;;;;9.82;57.34;98159.63;1089104;46;20031;-79
2022/11/22 14:11:02;;;;;;;6.35;1.83;;;;;;;9.67;57.73;98154.31;1087257;54;20118;-80
2022/11/22 14:12:39;;;;;;;5.25;1.60;;;;;;;9.84;57.44;98154.94;1087178;54;20110;-80
2022/11/22 14:13:53;;;;;;;4.55;1.42;;;;;;;9.84;57.41;98149.59;1087806;31;20837;-79
2022/11/22 14:15:17;;;;;;;4.65;1.45;;;;;;;9.81;57.32;98157.16;1087103;54;20030;-80
2022/11/22 14:16:33;;;;;;;7.63;1.58;;;;;;;9.56;57.69;98162.78;1087509;54;20054;-79
2022/11/22 14:17:48;;;;;;;5.05;1.50;;;;;;;9.72;57.74;98155.59;1090519;39;20685;-81
2022/11/22 14:19:02;;;;;;;5.88;1.50;;;;;;;9.55;57.53;98152.28;1087252;54;20034;-80
2022/11/22 14:20:22;;;;;;;7.53;1.85;;;;;;;9.48;58.05;98158.38;1087464;54;21399;-80
2022/11/22 14:21:45;;;;;;;4.38;1.70;;;;;;;9.66;57.85;98159.81;1087582;54;20034;-79
2022/11/22 14:22:57;;;;;;;5.28;1.98;;;;;;;9.68;57.73;98158.63;1087527;54;20049;-78
2022/11/22 14:24:10;;;;;;;4.78;1.40;;;;;;;9.57;57.96;98159.13;1089976;39;20709;-79
2022/11/22 14:25:32;;;;;;;4.78;1.42;;;;;;;9.69;57.90;98167.47;1087484;54;20074;-80
2022/11/22 14:26:48;;;;;;;7.28;1.40;;;;;;;9.75;57.75;98163.25;1087490;54;20057;-80
2022/11/22 14:27:55;;;;;;;3.67;1.15;;;;;;;9.76;57.79;98168.38;1088945;39;20658;-79
2022/11/22 14:29:36;;;;;;;5.82;1.75;;;;;;;9.67;57.83;98167.66;1087313;54;21208;-79
2022/11/22 14:30:45;;;;;;;4.68;1.38;;;;;;;9.74;57.73;98175.75;1087016;54;20077;-79
2022/11/22 14:31:54;;;;;;;5.80;1.20;;;;;;;9.67;57.55;98175.66;1087365;54;20030;-79
2022/11/22 14:33:06;;;;;;;5.05;1.27;;;;;;;9.73;57.46;98174.06;1087500;54;20174;-80
2022/11/22 14:34:20;;;;;;;4.55;1.40;;;;;;;9.54;57.40;98174.66;1087122;54;20073;-79
2022/11/22 14:35:27;;;;;;;5.32;1.70;;;;;;;9.49;57.81;98181.38;1087456;54;20019;-79
2022/11/22 14:36:31;;;;;;;4.93;1.42;;;;;;;9.55;57.68;98186.97;1087585;54;20035;-78
2022/11/22 14:37:43;;;;;;;5.13;1.60;;;;;;;9.48;57.78;98185.03;1087491;54;20043;-78
2022/11/22 14:38:49;;;;;;;6.65;1.55;;;;;;;9.46;58.07;98189.72;1087413;54;20061;-80
2022/11/22 14:40:00;;;;;;;8.50;1.80;;;;;;;9.33;57.93;98181.53;1087538;54;20046;-79
2022/11/22 14:41:46;;;;;;;4.63;1.40;;;;;;;9.47;57.62;98185.22;1087967;39;20481;-79
2022/11/22 14:42:55;;;;;;;4.15;1.20;;;;;;;9.59;57.80;98182.94;1087455;46;20035;-79
2022/11/22 14:44:03;;;;;;;4.70;1.20;;;;;;;9.57;57.85;98191.13;1087163;54;20090;-80
2022/11/22 14:45:17;;;;;;;8.02;2.30;;;;;;;9.59;57.70;98183.75;1087024;54;20090;-79
2022/11/22 14:46:24;;;;;;;4.90;1.40;;;;;;;9.47;57.86;98187.91;1088604;39;20749;-79
2022/11/22 14:47:28;;;;;;;6.05;1.50;;;;;;;9.43;58.28;98191.94;1087459;54;20061;-79
2022/11/22 14:48:44;;;;;;;4.10;1.20;;;;;;;9.58;58.00;98194.59;1087484;54;20064;-79
2022/11/22 14:49:47;;;;;;;4.80;1.60;;;;;;;9.50;57.96;98185.69;1087431;54;20034;-79
2022/11/22 14:51:02;;;;;;;5.78;1.52;;;;;;;9.58;57.86;98189.28;1087496;54;20800;-79
2022/11/22 14:52:13;;;;;;;4.15;1.35;;;;;;;9.54;57.81;98183.47;1087464;54;20069;-79
2022/11/22 14:53:24;;;;;;;4.80;1.30;;;;;;;9.61;57.82;98192.41;1087475;54;20040;-79
2022/11/22 14:54:32;;;;;;;5.95;1.95;;;;;;;9.56;57.92;98194.81;1087484;54;20030;-79
2022/11/22 14:55:37;;;;;;;4.80;1.90;;;;;;;9.34;58.24;98191.19;1088296;39;20689;-79
2022/11/22 14:56:45;;;;;;;4.60;1.77;;;;;;;9.43;58.35;98184.78;1087488;54;20042;-79
2022/11/22 14:57:53;;;;;;;3.92;1.70;;;;;;;9.48;58.21;98198.38;1087542;54;20062;-79
2022/11/22 14:59:12;;;;;;;4.82;1.63;;;;;;;9.37;57.91;98188.16;1089405;39;21019;-79
2022/11/22 15:00:20;;;;;;;4.78;1.90;;;;;;;9.39;58.27;98191.47;1087400;54;20030;-79
2022/11/22 15:01:44;;;;;;;4.88;1.83;;;;;;;9.47;58.10;98195.91;1087517;54;20053;-78
2022/11/22 15:03:13;;;;;;;3.42;1.50;;;;;;;9.41;58.35;98185.94;1087507;54;20030;-78
2022/11/22 15:04:47;;;;;;;5.28;1.88;;;;;;;9.38;58.15;98187.16;1087525;54;20034;-79
2022/11/22 15:06:06;;;;;;;4.43;1.60;;;;;;;9.43;58.21;98190.09;1087424;54;20082;-79
2022/11/22 15:07:33;;;;;;;5.57;1.60;;;;;;;9.49;57.98;98192.03;1087427;54;20061;-79
2022/11/22 15:08:47;;;;;;;4.25;1.65;;;;;;;9.38;58.28;98197.81;1087478;54;20035;-78
2022/11/22 15:10:09;;;;;;;4.32;1.50;;;;;;;9.21;58.60;98197.97;1087552;46;20038;-78
2022/11/22 15:11:30;;;;;;;7.85;1.33;;;;;;;8.96;58.48;98200.03;1092896;39;20693;-79
2022/11/22 15:12:49;;;;;;;;;;;;;;;8.87;59.27;98196.63;1087701;54;20050;-78
2022/11/22 15:14:10;;;;;;;3.83;1.17;;;;;;;8.88;59.24;98198.25;1088871;46;19942;-79
2022/11/22 15:15:28;;;;;;;5.15;1.50;;;;;;;8.85;59.19;98203.97;1087567;54;20046;-78
2022/11/22 15:16:31;;;;;;;4.60;1.38;;;;;;;8.83;59.47;98197.16;1088014;39;20064;-79
2022/11/22 15:17:37;;;;;;;6.07;1.80;;;;;;;8.81;59.61;98197.31;1088118;46;20896;-79
2022/11/22 15:18:42;;;;;;;4.05;1.38;;;;;;;8.94;59.27;98199.38;1087878;54;20037;-79
2022/11/22 15:19:48;;;;;;;7.30;1.73;;;;;;;8.93;59.29;98199.56;1087946;54;20054;-79